• Join FlightAware (Why Join?)
  • Login
  • US Flag 
09:26PM EDT


 

Airport Tracker/Info


-or-


 

Live Flight TrackerFlight Track Log ✈ OPT404 ✈ 16-Jul-2013 ✈ KBFI - KMCC

Flight Track Log - Related Links

Times and Time Zones

All times are in EDT time to prevent confusion due to time zone crossing. See the OPT404 flight status page for this flight to view local times or setup timezone preferences in your user account.

Time Position Orientation Groundspeed Altitude Reporting Facility
EDT Latitude Longitude Course Direction KTS MPH feet Rate Location/Type
11:18AM 47.5400 -122.3117 325° Northwest 158 182 1,300  Level Seattle Center
11:19AM 47.5703 -122.3428 325° Northwest 175 201 3,500 2,820 Climbing Seattle Center
11:20AM 47.6072 -122.3997 314° West 216 249 6,400 2,520 Climbing Seattle Center
11:21AM 47.5550 -122.4400 208° Southwest 246 283 8,700 2,160 Climbing Seattle Center
11:22AM 47.4783 -122.4367 178° South 278 320 10,800 2,280 Climbing Seattle Center
11:23AM 47.4150 -122.3517 138° Southeast 331 381 13,400 2,520 Climbing Seattle Center
11:24AM 47.4078 -122.2186 95° East 335 386 16,000 2,280 Climbing Seattle Center
11:25AM 47.3361 -122.1569 150° Southeast 303 349 18,100 1,980 Climbing Seattle Center
11:26AM 47.2497 -122.1489 176° South 309 356 20,100 1,920 Climbing Seattle Center
11:27AM 47.1583 -122.1408 177° South 325 374 22,000 1,860 Climbing Seattle Center
11:28AM 47.0644 -122.1328 177° South 337 388 23,900 1,860 Climbing Seattle Center
11:29AM 46.9697 -122.1247 177° South 343 395 25,800 1,860 Climbing Seattle Center
11:30AM 46.8753 -122.1167 177° South 342 394 27,800 1,740 Climbing Seattle Center
11:31AM 46.7797 -122.1072 176° South 347 399 29,400 1,620 Climbing Seattle Center
11:32AM 46.6808 -122.0981 176° South 358 412 31,100 1,620 Climbing Seattle Center
11:33AM 46.5800 -122.0906 177° South 365 420 32,700 1,620 Climbing Seattle Center
11:34AM 46.4589 -122.0803 177° South 366 421 34,500 1,620 Climbing Seattle Center
11:35AM 46.3603 -122.0725 177° South 362 417 36,000 1,380 Climbing Seattle Center
11:36AM 46.2617 -122.0639 177° South 360 414 37,400 1,260 Climbing Seattle Center
11:37AM 46.1764 -122.0536 175° South 352 405 38,600 1,080 Climbing Seattle Center
11:38AM 46.0636 -122.0450 177° South 341 392 39,700 720 Climbing Seattle Center
11:40AM 45.9675 -122.0375 177° South 345 397 40,100 360 Climbing Seattle Center
11:41AM 45.8678 -122.0272 176° South 356 410 40,500 360 Climbing Seattle Center
11:42AM 45.7667 -122.0192 177° South 363 418 40,900 240 Climbing Seattle Center
11:43AM 45.6617 -122.0086 176° South 374 430 41,000  Climbing Seattle Center
11:44AM 45.5586 -122.0006 177° South 373 429 41,000  Level Seattle Center
11:45AM 45.4542 -121.9922 177° South 374 430 41,000  Level Seattle Center
11:46AM 45.3486 -121.9831 177° South 379 436 41,000  Level Seattle Center
11:47AM 45.2428 -121.9739 177° South 379 436 41,000  Level Seattle Center
11:48AM 45.1361 -121.9642 176° South 384 442 41,000  Level Seattle Center
11:49AM 45.0289 -121.9556 177° South 385 443 41,000  Level Seattle Center
11:50AM 44.9225 -121.9458 176° South 384 442 41,000  Level Seattle Center
11:51AM 44.8033 -121.9369 177° South 374 430 41,000  Level Seattle Center
11:52AM 44.6975 -121.9272 176° South 378 435 41,000  Level Seattle Center
11:53AM 44.5911 -121.9186 177° South 380 437 41,000  Level Seattle Center
11:54AM 44.4842 -121.9092 176° South 383 441 41,000  Level Seattle Center
11:55AM 44.3797 -121.9011 177° South 378 435 41,000  Level Seattle Center
11:56AM 44.2733 -121.8919 176° South 379 436 41,000  Level Seattle Center
11:57AM 44.1597 -121.8836 177° South 381 438 41,000  Level Seattle Center
11:58AM 44.0542 -121.8758 177° South 381 438 41,000  Level Seattle Center
11:59AM 43.9481 -121.8678 177° South 384 442 41,000  Level Seattle Center
12:00PM 43.8425 -121.8575 176° South 383 441 41,000  Level Seattle Center
12:01PM 43.7278 -121.8497 177° South 384 442 41,000  Level Seattle Center
12:02PM 43.6214 -121.8417 177° South 382 440 41,000  Level Seattle Center
12:03PM 43.5144 -121.8328 177° South 385 443 41,000  Level Seattle Center
12:04PM 43.4089 -121.8231 176° South 382 440 41,000  Level Seattle Center
12:05PM 43.3025 -121.8167 177° South 384 442 41,000  Level Seattle Center
12:06PM 43.1967 -121.8072 176° South 381 438 41,000  Level Seattle Center
12:07PM 43.0911 -121.7992 177° South 381 438 41,000  Level Seattle Center
12:08PM 42.9864 -121.7903 176° South 378 435 41,000  Level Seattle Center
12:09PM 42.8600 -121.7797 176° South 378 435 41,000  Level Seattle Center
12:10PM 42.7547 -121.7722 177° South 378 435 41,000  Level Seattle Center
12:11PM 42.6508 -121.7644 177° South 375 432 41,000  Level Seattle Center
12:12PM 42.5453 -121.7561 177° South 378 435 41,000  Level Seattle Center
12:13PM 42.4408 -121.7483 177° South 375 432 41,000  Level Seattle Center
12:14PM 42.3347 -121.7403 177° South 379 436 41,000  Level Seattle Center
12:15PM 42.2294 -121.7292 176° South 377 434 41,000  Level Seattle Center
12:16PM 42.1231 -121.7183 176° South 377 434 41,000  Level Seattle Center
12:17PM 42.0156 -121.7081 176° South 380 437 41,000  Level Seattle Center
12:18PM 41.9092 -121.6992 176° South 379 436 41,000  Level Seattle Center
12:19PM 41.8033 -121.6892 176° South 379 436 41,000  Level Seattle Center
12:20PM 41.6989 -121.6797 176° South 376 433 41,000  Level Seattle Center
12:21PM 41.5953 -121.6708 176° South 373 429 41,000  Level Seattle Center
12:22PM 41.4903 -121.6603 176° South 376 433 41,000  Level Seattle Center
12:23PM 41.3642 -121.6483 176° South 378 435 41,000  Level Seattle Center
12:24PM 41.2589 -121.6381 176° South 379 436 41,000  Level Seattle Center
12:25PM 41.1536 -121.6289 176° South 378 435 41,000  Level Seattle Center
12:26PM 41.0494 -121.6186 176° South 376 433 41,000 -480 Level Seattle Center
12:27PM 40.9492 -121.6050 174° South 379 436 40,100 -1,200 Descending Oakland Center
12:28PM 40.8447 -121.5967 177° South 376 433 38,600 -1,500 Descending Oakland Center
12:29PM 40.7417 -121.5858 175° South 372 428 37,100 -1,500 Descending Oakland Center
12:30PM 40.6447 -121.5756 175° South 358 412 35,600 -1,620 Descending Oakland Center
12:31PM 40.5272 -121.5664 177° South 351 404 33,800 -1,620 Descending Oakland Center
12:32PM 40.4272 -121.5575 176° South 355 409 32,300 -1,560 Descending Oakland Center
12:34PM 40.3192 -121.5475 176° South 379 436 30,700 -1,620 Descending Oakland Center
12:35PM 40.2125 -121.5372 176° South 381 438 29,100 -1,620 Descending Oakland Center
12:36PM 40.1064 -121.5275 176° South 382 440 27,500 -1,620 Descending Oakland Center
12:37PM 40.0006 -121.5186 176° South 380 437 25,900 -1,620 Descending Oakland Center
12:38PM 39.8922 -121.5078 176° South 389 448 24,300 -1,560 Descending Oakland Center
12:39PM 39.7811 -121.4975 176° South 398 458 22,800 -1,620 Descending Oakland Center
12:40PM 39.6717 -121.4883 176° South 395 455 21,100 -1,620 Descending Oakland Center
12:41PM 39.5656 -121.4789 176° South 384 442 19,500 -1,740 Descending Oakland Center
12:42PM 39.4456 -121.4669 176° South 372 428 17,600 -1,800 Descending Oakland Center
12:43PM 39.3428 -121.4575 176° South 371 427 15,900 -2,100 Descending Oakland Center
12:44PM 39.2347 -121.4389 172° South 368 423 13,400 -2,520 Descending Oakland Center
12:46PM 39.0833 -121.4000 169° South 295 339 8,800 -2,400 Descending Northern Cal TRACON
12:47PM 39.0167 -121.4000 180° South 249 287 6,700 -2,040 Descending Northern Cal TRACON
12:48PM 38.9667 -121.4000 180° South 240 276 5,000 -1,920 Descending Northern Cal TRACON
12:49PM 38.9000 -121.4000 180° South 236 272 3,100 -960 Descending Northern Cal TRACON
12:50PM 38.8333 -121.4000 180° South 167 192 3,000 -360 Descending Northern Cal TRACON
12:51PM 38.8000 -121.4000 180° South 133 153 2,400 -720 Descending Northern Cal TRACON
12:52PM 38.7667 -121.4000 180° South 126 145 1,700 -600 Descending Northern Cal TRACON
12:53PM 38.7333 -121.4000 180° South 105 121 1,200 -600 Descending Northern Cal TRACON
12:54PM 38.7000 -121.4000 180° South 111 128 500 -120 Descending Northern Cal TRACON
12:54PM 38.6667 -121.4000 180° South 132 152 1,000 1,260 Climbing Northern Cal TRACON
12:55PM 38.6333 -121.4000 180° South 149 171 2,900 1,020 Climbing Northern Cal TRACON
12:56PM 38.6667 -121.3500 49° Northeast 201 231 3,100  Climbing Northern Cal TRACON
12:57PM 38.7167 -121.3333 15° North 204 235 3,000 -120 Descending Northern Cal TRACON